Time;durP1;ratioP1;P1;durP2;ratioP2;P2;SDS_P1;SDS_P2;PMS_P1;PMS_P2;Temp;Humidity;BMP_temperature;BMP_pressure;BME280_temperature;BME280_humidity;BME280_pressure;Samples;Min_cycle;Max_cycle;Signal;HPM_P1;HPM_P2
2023/02/25 00:02:07;;;;;;;24.63;5.20;;;5.20;99.90;;;;;;5056335;28;20123;-73
2023/02/25 00:04:33;;;;;;;23.70;5.75;;;5.40;99.90;;;;;;5055692;28;20051;-73
2023/02/25 00:07:00;;;;;;;33.75;6.47;;;5.40;99.90;;;;;;5056017;28;20048;-73
2023/02/25 00:09:26;;;;;;;25.92;6.13;;;5.50;99.90;;;;;;5073958;28;20055;-73
2023/02/25 00:11:51;;;;;;;25.50;6.38;;;5.60;99.90;;;;;;5055935;28;20037;-73
2023/02/25 00:14:17;;;;;;;28.27;7.05;;;5.60;99.90;;;;;;5055633;28;20145;-73
2023/02/25 00:16:43;;;;;;;29.65;5.05;;;5.70;99.90;;;;;;5073837;28;20064;-73
2023/02/25 00:19:09;;;;;;;38.45;6.07;;;5.50;99.90;;;;;;5055888;28;20094;-73
2023/02/25 00:21:35;;;;;;;18.50;4.60;;;5.70;99.90;;;;;;5055410;28;20048;-73
2023/02/25 00:24:00;;;;;;;18.33;4.22;;;5.70;99.90;;;;;;5072904;28;20037;-73
2023/02/25 00:26:26;;;;;;;11.00;2.92;;;5.70;99.90;;;;;;5073571;28;20049;-73
2023/02/25 00:28:52;;;;;;;10.55;1.90;;;5.60;99.90;;;;;;5055634;28;20072;-73
2023/02/25 00:31:20;;;;;;;8.02;2.03;;;5.50;99.90;;;;;;5039011;28;20119;-73
2023/02/25 00:33:46;;;;;;;6.95;1.80;;;5.40;99.90;;;;;;5073304;28;20459;-73
2023/02/25 00:36:18;;;;;;;5.75;1.63;;;5.30;99.90;;;;;;5073419;28;20384;-73
2023/02/25 00:38:47;;;;;;;21.85;3.13;;;4.90;99.90;;;;;;5055369;28;20552;-73
2023/02/25 00:41:15;;;;;;;5.60;2.00;;;5.00;99.90;;;;;;5073332;28;20403;-73
2023/02/25 00:43:43;;;;;;;13.35;2.47;;;4.90;99.90;;;;;;5038485;28;20496;-73
2023/02/25 00:46:12;;;;;;;16.45;2.28;;;4.90;99.90;;;;;;5038672;28;20055;-73
2023/02/25 00:48:38;;;;;;;13.55;2.33;;;4.70;99.90;;;;;;5038764;28;20036;-73
2023/02/25 00:51:19;;;;;;;12.10;2.80;;;4.70;99.90;;;;;;5055496;28;20040;-73
2023/02/25 00:53:45;;;;;;;7.60;1.80;;;4.60;99.90;;;;;;5055046;28;20039;-73
2023/02/25 00:56:16;;;;;;;10.68;2.45;;;4.60;99.90;;;;;;5055363;28;20037;-73
2023/02/25 00:58:46;;;;;;;8.50;1.60;;;4.80;99.90;;;;;;5055144;28;20052;-73
2023/02/25 01:01:38;;;;;;;8.52;1.48;;;4.80;99.90;;;;;;5055087;28;20047;-73
2023/02/25 01:04:04;;;;;;;4.55;1.42;;;4.50;99.90;;;;;;5050478;28;20080;-73
2023/02/25 01:06:32;;;;;;;5.28;1.30;;;4.80;99.90;;;;;;5054812;28;20044;-73
2023/02/25 01:08:58;;;;;;;8.07;1.63;;;4.50;99.90;;;;;;5072932;28;20044;-73
2023/02/25 01:11:30;;;;;;;5.95;1.73;;;4.80;99.90;;;;;;5054880;28;20032;-73
2023/02/25 01:14:02;;;;;;;7.15;1.08;;;4.50;99.90;;;;;;5054513;28;20032;-73
2023/02/25 01:16:28;;;;;;;6.03;1.75;;;4.70;99.90;;;;;;5072938;28;20044;-73
2023/02/25 01:18:56;;;;;;;7.55;1.33;;;4.50;99.90;;;;;;5054781;28;20041;-73
2023/02/25 01:21:28;;;;;;;6.63;1.17;;;4.70;99.90;;;;;;5072789;28;20072;-73
2023/02/25 01:23:59;;;;;;;4.40;1.17;;;4.60;99.90;;;;;;5072115;28;20040;-73
2023/02/25 01:26:29;;;;;;;10.48;1.35;;;4.60;99.90;;;;;;5072417;28;20032;-73
2023/02/25 01:28:55;;;;;;;5.07;1.63;;;4.50;99.90;;;;;;5072384;28;20032;-73
2023/02/25 01:31:23;;;;;;;11.70;1.20;;;4.90;99.90;;;;;;5054390;28;20040;-73
2023/02/25 01:33:52;;;;;;;5.78;1.60;;;4.90;99.90;;;;;;5071652;28;20032;-74
2023/02/25 01:36:17;;;;;;;5.43;1.73;;;4.70;99.90;;;;;;5062409;28;20044;-73
2023/02/25 01:38:43;;;;;;;9.52;2.70;;;4.60;99.90;;;;;;5053992;28;20419;-73
2023/02/25 01:41:09;;;;;;;9.85;1.38;;;4.70;99.90;;;;;;5054392;28;20040;-73
2023/02/25 01:43:34;;;;;;;6.70;1.80;;;4.80;99.90;;;;;;5054178;28;20043;-73
2023/02/25 01:46:00;;;;;;;10.32;2.28;;;4.40;99.90;;;;;;5037619;28;20040;-73
2023/02/25 01:48:39;;;;;;;14.82;2.72;;;4.70;99.90;;;;;;5072188;28;20041;-73
2023/02/25 01:51:11;;;;;;;16.05;3.42;;;4.50;99.90;;;;;;5054416;28;20115;-73
2023/02/25 01:53:45;;;;;;;18.38;3.10;;;4.50;99.90;;;;;;5071563;28;20037;-73
2023/02/25 01:56:13;;;;;;;25.00;4.35;;;4.60;99.90;;;;;;5054374;28;20044;-73
2023/02/25 01:58:39;;;;;;;24.00;5.70;;;4.80;99.90;;;;;;5053895;28;20044;-73
2023/02/25 02:01:11;;;;;;;25.42;5.47;;;4.70;99.90;;;;;;5054196;28;20048;-73
2023/02/25 02:03:37;;;;;;;19.75;4.88;;;4.50;99.90;;;;;;5071631;28;20050;-73
2023/02/25 02:06:14;;;;;;;31.20;5.82;;;4.70;99.90;;;;;;5071805;28;20051;-73
2023/02/25 02:08:41;;;;;;;23.17;5.68;;;4.70;99.90;;;;;;5072101;28;20037;-73
2023/02/25 02:11:06;;;;;;;23.38;5.03;;;4.90;99.90;;;;;;5053830;28;20040;-73
2023/02/25 02:13:36;;;;;;;16.75;3.78;;;5.00;99.90;;;;;;5071537;28;20059;-73
2023/02/25 02:16:25;;;;;;;15.00;3.75;;;4.90;99.90;;;;;;5054078;28;20403;-73
2023/02/25 02:19:19;;;;;;;20.73;4.50;;;5.10;99.90;;;;;;5053711;28;20051;-73
2023/02/25 02:22:10;;;;;;;22.55;6.32;;;4.90;99.90;;;;;;5034978;28;20080;-73
2023/02/25 02:25:32;;;;;;;21.88;4.43;;;4.80;99.90;;;;;;5053198;28;20044;-73
2023/02/25 02:28:06;;;;;;;21.58;3.97;;;5.00;99.90;;;;;;5053628;28;20083;-73
2023/02/25 02:31:05;;;;;;;13.90;3.92;;;4.90;99.90;;;;;;5071642;28;20064;-73
2023/02/25 02:34:06;;;;;;;17.92;3.42;;;5.00;99.90;;;;;;5053154;28;20067;-73
2023/02/25 02:37:04;;;;;;;15.35;3.20;;;5.10;99.90;;;;;;5082239;28;20035;-74
2023/02/25 02:39:48;;;;;;;12.88;2.53;;;5.10;99.90;;;;;;5044179;28;20063;-73
2023/02/25 02:42:20;;;;;;;;;;;4.90;99.90;;;;;;5072097;28;20066;-73
2023/02/25 02:45:10;;;;;;;14.73;2.85;;;5.10;99.90;;;;;;5053333;28;19970;-73
2023/02/25 02:47:39;;;;;;;10.65;2.80;;;4.80;99.90;;;;;;5057631;28;20071;-73
2023/02/25 02:50:15;;;;;;;11.18;2.95;;;5.10;99.90;;;;;;5075458;28;20540;-73
2023/02/25 02:52:45;;;;;;;14.27;2.80;;;5.10;99.90;;;;;;5057698;28;20417;-73
2023/02/25 02:55:21;;;;;;;11.63;1.85;;;4.80;99.90;;;;;;5076490;28;20065;-73
2023/02/25 02:57:48;;;;;;;15.35;2.97;;;4.80;99.90;;;;;;5076275;28;20508;-73
2023/02/25 03:00:16;;;;;;;7.28;1.58;;;4.90;99.90;;;;;;5057428;28;20040;-73
2023/02/25 03:02:49;;;;;;;8.77;1.35;;;4.90;99.90;;;;;;5057129;28;20048;-73
2023/02/25 03:05:16;;;;;;;6.47;1.17;;;4.80;99.90;;;;;;5057265;28;20478;-73
2023/02/25 03:07:50;;;;;;;8.88;1.30;;;4.80;99.90;;;;;;5057493;28;20037;-73
2023/02/25 03:10:20;;;;;;;9.43;2.25;;;4.70;99.90;;;;;;5040638;28;20047;-73
2023/02/25 03:12:45;;;;;;;5.05;1.30;;;4.50;99.90;;;;;;5074893;28;20372;-73
2023/02/25 03:15:13;;;;;;;5.05;0.93;;;4.50;99.90;;;;;;5074793;28;20043;-73
2023/02/25 03:17:42;;;;;;;7.32;1.40;;;4.50;99.90;;;;;;5075086;28;20086;-73
2023/02/25 03:20:12;;;;;;;3.60;1.52;;;4.50;99.90;;;;;;5057004;28;20062;-73
2023/02/25 03:22:41;;;;;;;4.80;0.95;;;4.50;99.90;;;;;;5056609;28;21820;-73
2023/02/25 03:25:25;;;;;;;4.53;1.10;;;4.50;99.90;;;;;;5074655;28;20051;-73
2023/02/25 03:27:54;;;;;;;10.00;1.25;;;4.40;99.90;;;;;;5056857;28;20040;-73
2023/02/25 03:30:23;;;;;;;4.65;1.70;;;4.80;99.90;;;;;;5056722;28;20034;-73
2023/02/25 03:32:55;;;;;;;9.00;1.95;;;4.60;99.90;;;;;;5056328;28;20032;-73
2023/02/25 03:35:23;;;;;;;10.05;1.55;;;4.60;99.90;;;;;;5056330;28;20040;-73
2023/02/25 03:37:51;;;;;;;13.40;3.03;;;4.60;99.90;;;;;;5074230;28;20045;-73
2023/02/25 03:40:20;;;;;;;5.97;1.67;;;4.80;99.90;;;;;;5074504;28;20614;-73
2023/02/25 03:42:51;;;;;;;6.80;1.65;;;4.70;99.90;;;;;;5074510;28;20437;-73
2023/02/25 03:45:19;;;;;;;7.47;1.55;;;4.60;99.90;;;;;;5056411;28;20040;-73
2023/02/25 03:47:45;;;;;;;7.63;1.52;;;4.50;99.90;;;;;;5074407;28;20041;-73
2023/02/25 03:50:17;;;;;;;11.32;1.80;;;4.60;99.90;;;;;;5074355;28;20097;-73
2023/02/25 03:52:43;;;;;;;9.63;1.88;;;4.80;99.90;;;;;;5074286;28;20047;-73
2023/02/25 03:55:10;;;;;;;10.40;1.50;;;4.80;99.90;;;;;;5056161;28;20419;-73
2023/02/25 03:57:39;;;;;;;6.90;1.55;;;4.60;99.90;;;;;;5055110;28;20044;-73
2023/02/25 04:00:17;;;;;;;13.02;1.85;;;4.80;99.90;;;;;;5056497;28;20562;-73
2023/02/25 04:02:45;;;;;;;7.00;0.90;;;4.80;99.90;;;;;;5074011;28;20556;-72
2023/02/25 04:05:12;;;;;;;3.78;0.60;;;4.70;99.90;;;;;;5055918;28;20048;-73
2023/02/25 04:07:38;;;;;;;6.18;0.75;;;4.40;99.90;;;;;;5074407;28;20072;-73
2023/02/25 04:10:05;;;;;;;2.25;0.38;;;4.30;99.90;;;;;;5074274;28;20067;-73
2023/02/25 04:12:31;;;;;;;2.70;0.50;;;4.40;99.90;;;;;;5073899;28;20047;-73
2023/02/25 04:14:56;;;;;;;1.92;0.45;;;4.40;99.90;;;;;;5039363;28;20111;-73
2023/02/25 04:17:22;;;;;;;1.80;0.50;;;4.30;99.90;;;;;;5056154;28;20094;-73
2023/02/25 04:19:47;;;;;;;2.38;0.38;;;4.30;99.90;;;;;;5073792;28;20040;-73
2023/02/25 04:22:13;;;;;;;3.05;0.45;;;4.00;99.90;;;;;;5055892;28;20044;-73
2023/02/25 04:24:38;;;;;;;1.70;0.28;;;4.10;99.90;;;;;;5055658;28;20399;-73
2023/02/25 04:27:04;;;;;;;9.73;2.05;;;4.30;99.90;;;;;;5055733;28;20495;-73
2023/02/25 04:29:29;;;;;;;1.88;0.57;;;4.00;99.90;;;;;;5073587;28;20041;-73
2023/02/25 04:31:55;;;;;;;1.17;0.40;;;4.30;99.90;;;;;;5073512;28;20032;-74
2023/02/25 04:34:21;;;;;;;5.22;0.55;;;4.30;99.90;;;;;;5073402;28;20032;-73
2023/02/25 04:36:47;;;;;;;2.58;0.57;;;4.20;99.90;;;;;;5055831;28;20491;-73
2023/02/25 04:39:14;;;;;;;1.60;0.43;;;4.00;99.90;;;;;;5055568;28;20052;-73
2023/02/25 04:41:40;;;;;;;2.70;0.50;;;4.10;99.90;;;;;;5055671;28;20075;-73
2023/02/25 04:44:07;;;;;;;2.50;0.50;;;4.20;99.90;;;;;;5055086;28;20116;-73
2023/02/25 04:46:35;;;;;;;7.57;0.93;;;4.20;99.90;;;;;;5073139;28;20510;-73
2023/02/25 04:49:01;;;;;;;2.42;0.70;;;4.20;99.90;;;;;;5055515;28;20040;-73
2023/02/25 04:51:26;;;;;;;2.35;0.50;;;4.10;99.90;;;;;;5055158;28;20467;-73
2023/02/25 04:53:52;;;;;;;1.92;0.70;;;4.10;99.90;;;;;;5072930;28;20035;-73
2023/02/25 04:56:18;;;;;;;3.60;0.80;;;4.00;99.90;;;;;;5055308;28;20569;-73
2023/02/25 04:58:44;;;;;;;3.33;0.77;;;4.20;99.90;;;;;;5073114;28;20040;-73
2023/02/25 05:01:10;;;;;;;4.75;0.80;;;4.40;99.90;;;;;;5072976;28;20059;-73
2023/02/25 05:03:36;;;;;;;2.63;0.80;;;4.10;99.90;;;;;;5072766;28;20044;-73
2023/02/25 05:06:03;;;;;;;6.97;0.90;;;4.10;99.90;;;;;;5073001;28;20033;-73
2023/02/25 05:08:29;;;;;;;5.32;1.55;;;4.20;99.90;;;;;;5054853;28;20037;-73
2023/02/25 05:10:55;;;;;;;4.53;2.00;;;4.20;99.90;;;;;;5072823;28;20480;-74
2023/02/25 05:13:21;;;;;;;4.32;1.10;;;4.50;99.90;;;;;;5054477;28;20037;-73
2023/02/25 05:15:47;;;;;;;5.68;1.10;;;4.40;99.90;;;;;;5038078;28;20040;-73
2023/02/25 05:18:12;;;;;;;4.03;1.33;;;4.50;99.90;;;;;;5054665;28;20119;-73
2023/02/25 05:20:43;;;;;;;3.72;1.20;;;4.20;99.90;;;;;;5072772;28;20129;-73
2023/02/25 05:23:09;;;;;;;7.13;1.20;;;4.20;99.90;;;;;;5054095;28;20112;-73
2023/02/25 05:25:40;;;;;;;14.10;1.63;;;4.50;99.90;;;;;;5072268;28;20036;-73
2023/02/25 05:28:09;;;;;;;5.70;1.20;;;4.60;99.90;;;;;;5070082;28;20122;-73
2023/02/25 05:30:36;;;;;;;7.75;1.30;;;4.50;99.90;;;;;;5053344;28;20500;-73
2023/02/25 05:33:02;;;;;;;3.42;1.40;;;4.40;99.90;;;;;;5053578;28;20507;-73
2023/02/25 05:35:27;;;;;;;6.70;1.00;;;4.50;99.90;;;;;;5072371;28;20055;-73
2023/02/25 05:37:53;;;;;;;5.50;1.80;;;4.30;99.90;;;;;;5054598;28;20048;-73
2023/02/25 05:40:19;;;;;;;7.38;1.35;;;4.50;99.90;;;;;;5072272;28;20082;-74
2023/02/25 05:42:48;;;;;;;4.90;1.50;;;4.50;99.90;;;;;;5071985;28;20032;-73
2023/02/25 05:45:14;;;;;;;9.68;1.67;;;4.40;99.90;;;;;;5053972;28;20048;-73
2023/02/25 05:47:40;;;;;;;6.03;1.27;;;4.60;99.90;;;;;;5072265;28;20090;-73
2023/02/25 05:50:06;;;;;;;4.65;1.35;;;4.40;99.90;;;;;;5072239;28;20044;-74
2023/02/25 05:52:31;;;;;;;3.90;1.42;;;4.50;99.90;;;;;;5053901;28;20048;-73
2023/02/25 05:54:57;;;;;;;10.60;2.40;;;4.40;99.90;;;;;;5054274;28;20079;-73
2023/02/25 05:57:22;;;;;;;8.18;2.03;;;4.50;99.90;;;;;;5053864;28;20048;-73
2023/02/25 05:59:48;;;;;;;9.70;1.88;;;4.50;99.90;;;;;;5072081;28;20094;-73
2023/02/25 06:02:14;;;;;;;2.85;1.05;;;4.30;99.90;;;;;;5054113;28;20036;-73
2023/02/25 06:04:40;;;;;;;6.57;1.50;;;4.30;99.90;;;;;;5071369;28;20135;-73
2023/02/25 06:07:06;;;;;;;8.75;1.35;;;4.20;99.90;;;;;;5037239;28;20048;-73
2023/02/25 06:09:33;;;;;;;6.82;1.55;;;4.30;99.90;;;;;;5054130;28;20425;-73
2023/02/25 06:11:59;;;;;;;7.78;1.40;;;4.30;99.90;;;;;;5053729;28;20041;-73
2023/02/25 06:14:25;;;;;;;7.40;1.85;;;4.40;99.90;;;;;;5053838;28;20040;-73
2023/02/25 06:16:55;;;;;;;11.55;1.92;;;4.20;99.90;;;;;;5071607;28;20044;-73
2023/02/25 06:19:22;;;;;;;8.07;1.63;;;4.10;99.90;;;;;;5053810;28;20044;-73
2023/02/25 06:21:47;;;;;;;5.45;1.20;;;4.30;99.90;;;;;;5071280;28;20041;-73
2023/02/25 06:24:15;;;;;;;9.45;2.13;;;4.30;99.90;;;;;;5053343;28;20044;-73
2023/02/25 06:26:41;;;;;;;4.53;1.02;;;3.90;99.90;;;;;;5053559;28;20066;-73
2023/02/25 06:29:08;;;;;;;4.32;1.10;;;4.10;99.90;;;;;;5053609;28;20101;-73
2023/02/25 06:31:34;;;;;;;6.70;1.05;;;3.80;99.90;;;;;;5053174;28;20037;-73
2023/02/25 06:34:00;;;;;;;7.07;1.20;;;3.90;99.90;;;;;;5071119;28;20036;-73
2023/02/25 06:36:26;;;;;;;7.03;0.80;;;3.90;99.90;;;;;;5053446;28;20519;-73
2023/02/25 06:38:52;;;;;;;3.67;1.02;;;3.80;99.90;;;;;;5053391;28;20036;-73
2023/02/25 06:41:20;;;;;;;7.57;1.60;;;3.80;99.90;;;;;;5071398;28;20044;-73
2023/02/25 06:43:50;;;;;;;5.03;0.90;;;4.00;99.90;;;;;;5053042;28;20032;-73
2023/02/25 06:46:17;;;;;;;7.25;1.35;;;3.80;99.90;;;;;;5053459;28;20047;-73
2023/02/25 06:48:43;;;;;;;5.90;0.90;;;3.70;99.90;;;;;;5071547;28;20040;-73
2023/02/25 06:51:10;;;;;;;4.97;1.13;;;3.90;99.90;;;;;;5037039;28;20040;-73
2023/02/25 06:53:41;;;;;;;6.43;1.20;;;4.00;99.90;;;;;;5070958;28;20117;-73
2023/02/25 06:56:08;;;;;;;5.38;1.10;;;3.90;99.90;;;;;;5053716;28;20146;-74
2023/02/25 06:58:34;;;;;;;8.50;1.83;;;3.90;99.90;;;;;;5071215;28;20616;-73
2023/02/25 07:01:00;;;;;;;6.28;1.73;;;3.90;99.90;;;;;;5036523;28;20040;-73
2023/02/25 07:03:25;;;;;;;5.00;1.25;;;3.90;99.90;;;;;;5070901;28;20426;-73
2023/02/25 07:05:51;;;;;;;9.35;1.30;;;3.70;99.90;;;;;;5071206;28;20058;-72
2023/02/25 07:08:17;;;;;;;3.47;0.98;;;3.90;99.90;;;;;;5071116;28;20055;-73
2023/02/25 07:10:42;;;;;;;5.10;1.30;;;4.00;99.90;;;;;;5053273;28;20076;-73
2023/02/25 07:13:09;;;;;;;9.18;1.23;;;3.90;99.90;;;;;;5073145;28;20032;-73
2023/02/25 07:15:35;;;;;;;4.70;1.10;;;3.90;99.90;;;;;;5070905;28;20059;-73
2023/02/25 07:18:02;;;;;;;4.90;1.30;;;3.80;99.90;;;;;;5052933;28;20453;-73
2023/02/25 07:20:27;;;;;;;6.05;1.92;;;3.90;99.90;;;;;;5070716;28;20380;-74
2023/02/25 07:22:53;;;;;;;8.05;0.95;;;3.80;99.90;;;;;;5070255;28;20101;-73
2023/02/25 07:25:20;;;;;;;5.63;1.00;;;3.90;99.90;;;;;;5070872;28;20044;-73
2023/02/25 07:27:45;;;;;;;9.32;1.52;;;3.90;99.90;;;;;;5070852;28;20037;-74
2023/02/25 07:30:11;;;;;;;5.68;1.50;;;3.90;99.90;;;;;;5070801;28;20044;-74
2023/02/25 07:32:37;;;;;;;5.53;1.63;;;3.80;99.90;;;;;;5055288;28;20040;-73
2023/02/25 07:35:03;;;;;;;7.25;1.35;;;3.80;99.90;;;;;;5056181;28;20044;-73
2023/02/25 07:37:29;;;;;;;12.63;3.25;;;4.00;99.90;;;;;;5056441;28;20040;-73
2023/02/25 07:39:58;;;;;;;11.77;2.38;;;4.00;99.90;;;;;;5074723;28;20040;-73
2023/02/25 07:42:25;;;;;;;11.85;1.98;;;4.40;99.90;;;;;;5056431;28;20041;-74
2023/02/25 07:44:51;;;;;;;9.95;1.98;;;4.60;99.90;;;;;;5056501;28;20044;-74
2023/02/25 07:47:16;;;;;;;10.70;2.15;;;4.70;99.90;;;;;;5074535;28;20055;-73
2023/02/25 07:49:42;;;;;;;12.48;1.90;;;4.90;99.90;;;;;;5074442;28;20032;-73
2023/02/25 07:52:07;;;;;;;8.27;2.33;;;5.00;99.90;;;;;;5056190;28;20039;-73
2023/02/25 07:54:33;;;;;;;11.05;2.45;;;5.10;99.90;;;;;;5055803;28;20047;-73
2023/02/25 07:56:58;;;;;;;10.65;2.10;;;5.20;99.90;;;;;;5055964;28;20040;-74
2023/02/25 07:59:24;;;;;;;8.70;1.83;;;5.50;99.90;;;;;;5056251;28;20499;-73
2023/02/25 08:01:50;;;;;;;11.68;2.00;;;5.50;99.90;;;;;;5056124;28;20040;-73
2023/02/25 08:04:15;;;;;;;10.27;2.22;;;5.30;99.90;;;;;;5056057;28;20037;-73
2023/02/25 08:06:41;;;;;;;11.80;2.03;;;5.10;99.90;;;;;;5073824;28;20047;-73
2023/02/25 08:09:11;;;;;;;9.57;1.60;;;5.00;99.90;;;;;;5056111;28;20118;-73
2023/02/25 08:11:37;;;;;;;7.25;1.85;;;4.90;99.90;;;;;;5073981;28;20401;-73
2023/02/25 08:14:04;;;;;;;10.85;2.00;;;4.90;99.90;;;;;;5055876;28;20051;-73
2023/02/25 08:16:31;;;;;;;11.35;1.88;;;5.00;99.90;;;;;;5073770;28;20507;-73
2023/02/25 08:18:57;;;;;;;6.15;1.70;;;5.10;99.90;;;;;;5055955;28;20051;-73
2023/02/25 08:21:23;;;;;;;11.45;1.95;;;5.30;99.90;;;;;;5073772;28;20702;-73
2023/02/25 08:23:52;;;;;;;7.65;2.10;;;5.30;99.90;;;;;;5055345;28;20503;-73
2023/02/25 08:26:21;;;;;;;5.05;1.98;;;5.30;99.90;;;;;;5039215;28;20082;-74
2023/02/25 08:28:47;;;;;;;14.63;2.80;;;5.40;99.90;;;;;;5057696;28;20069;-73
2023/02/25 08:31:13;;;;;;;6.88;1.70;;;5.40;99.90;;;;;;5060053;28;20032;-73
2023/02/25 08:33:42;;;;;;;6.50;1.67;;;5.50;99.90;;;;;;5075497;28;20131;-73
2023/02/25 08:36:13;;;;;;;8.25;1.67;;;5.60;99.90;;;;;;5075649;28;20126;-73
2023/02/25 08:38:39;;;;;;;8.88;1.58;;;5.50;99.90;;;;;;5075666;28;20082;-74
2023/02/25 08:41:06;;;;;;;9.00;1.35;;;5.60;99.90;;;;;;5093797;28;20040;-73
2023/02/25 08:43:32;;;;;;;8.75;2.75;;;5.70;99.90;;;;;;5058100;28;20067;-74
2023/02/25 08:45:58;;;;;;;5.57;1.80;;;5.80;99.90;;;;;;5075428;28;20036;-74
2023/02/25 08:48:23;;;;;;;7.88;1.60;;;5.90;99.90;;;;;;5093405;28;20604;-73
2023/02/25 08:50:49;;;;;;;9.10;2.00;;;5.90;99.80;;;;;;5075287;28;20384;-73
2023/02/25 08:53:14;;;;;;;9.32;1.55;;;6.00;99.90;;;;;;5074963;28;20032;-73
2023/02/25 08:55:40;;;;;;;11.90;1.60;;;5.90;99.40;;;;;;5075112;28;20130;-73
2023/02/25 08:58:07;;;;;;;7.47;1.58;;;5.80;99.30;;;;;;5075107;28;20414;-73
2023/02/25 09:00:32;;;;;;;7.47;2.20;;;5.50;99.90;;;;;;5075009;28;20050;-73
2023/02/25 09:02:58;;;;;;;6.90;1.75;;;5.50;99.90;;;;;;5092738;28;20119;-73
2023/02/25 09:05:24;;;;;;;4.82;1.70;;;5.40;99.90;;;;;;5074868;28;20109;-74
2023/02/25 09:07:51;;;;;;;11.48;2.30;;;5.30;99.90;;;;;;5075292;28;20179;-74
2023/02/25 09:10:17;;;;;;;12.60;2.70;;;5.20;99.90;;;;;;5093144;28;20044;-74
2023/02/25 09:12:44;;;;;;;10.40;2.50;;;5.30;99.90;;;;;;5057937;28;20122;-74
2023/02/25 09:15:10;;;;;;;10.10;1.92;;;5.60;99.90;;;;;;5092878;28;20052;-73
2023/02/25 09:17:37;;;;;;;12.00;2.08;;;5.60;99.90;;;;;;5080123;28;20121;-73
2023/02/25 09:20:07;;;;;;;10.82;2.03;;;5.70;99.90;;;;;;5070530;28;20562;-73
2023/02/25 09:22:37;;;;;;;9.25;1.67;;;5.80;99.60;;;;;;5071088;28;20127;-73
2023/02/25 09:25:03;;;;;;;6.38;1.70;;;5.80;97.60;;;;;;5088586;28;20415;-74
2023/02/25 09:27:29;;;;;;;6.35;1.60;;;5.80;97.20;;;;;;5073465;28;20047;-74
2023/02/25 09:29:55;;;;;;;8.27;2.20;;;5.70;96.60;;;;;;5096859;28;20028;-73
2023/02/25 09:32:21;;;;;;;12.13;1.92;;;5.70;96.60;;;;;;5112813;28;20038;-73
2023/02/25 09:34:50;;;;;;;10.05;1.63;;;5.70;97.00;;;;;;5075559;28;20070;-74
2023/02/25 09:37:18;;;;;;;4.25;1.30;;;5.80;97.20;;;;;;5078256;28;20035;-73
2023/02/25 09:39:44;;;;;;;8.73;2.08;;;5.70;97.30;;;;;;5078867;28;20092;-73
2023/02/25 09:42:17;;;;;;;4.50;1.55;;;5.80;97.40;;;;;;5074212;28;20051;-73
2023/02/25 09:44:46;;;;;;;4.07;1.30;;;5.70;95.60;;;;;;5067713;28;20044;-73
2023/02/25 09:47:45;;;;;;;7.40;1.52;;;5.70;93.90;;;;;;5091776;28;20035;-74
2023/02/25 09:50:20;;;;;;;11.18;1.63;;;5.70;93.60;;;;;;5059670;28;20055;-74
2023/02/25 09:52:56;;;;;;;3.72;1.35;;;5.70;92.70;;;;;;5071659;28;20115;-73
2023/02/25 09:55:31;;;;;;;7.05;1.98;;;5.60;92.30;;;;;;5084442;28;20044;-74
2023/02/25 09:58:16;;;;;;;10.05;1.58;;;5.60;91.90;;;;;;5083748;28;20491;-74
2023/02/25 10:00:52;;;;;;;6.68;1.38;;;5.50;91.60;;;;;;5112336;28;20035;-74
2023/02/25 10:03:58;;;;;;;5.03;1.30;;;5.50;91.80;;;;;;5042772;28;20036;-74
2023/02/25 10:06:41;;;;;;;6.38;1.20;;;5.60;92.80;;;;;;5074845;28;20055;-74
2023/02/25 10:09:13;;;;;;;4.53;1.45;;;5.50;91.60;;;;;;5067003;28;20491;-73
2023/02/25 10:11:52;;;;;;;8.65;1.48;;;5.60;92.60;;;;;;5073477;28;20093;-73
2023/02/25 10:14:44;;;;;;;7.63;1.40;;;5.50;91.00;;;;;;5073584;28;20380;-74
2023/02/25 10:17:17;;;;;;;9.05;2.15;;;5.60;91.80;;;;;;5087778;28;20108;-74
2023/02/25 10:20:01;;;;;;;5.22;1.17;;;5.70;92.00;;;;;;5095704;28;20122;-74
2023/02/25 10:22:47;;;;;;;5.47;1.42;;;5.70;89.80;;;;;;5068875;28;20565;-74
2023/02/25 10:25:22;;;;;;;5.35;1.60;;;5.70;88.10;;;;;;5068637;28;20127;-73
2023/02/25 10:28:02;;;;;;;3.92;1.10;;;5.70;86.80;;;;;;5091581;28;20063;-73
2023/02/25 10:30:33;;;;;;;4.90;1.20;;;5.70;87.80;;;;;;5077459;28;20035;-74
2023/02/25 10:33:15;;;;;;;3.15;1.35;;;5.60;89.00;;;;;;5093519;28;20035;-74
2023/02/25 10:35:41;;;;;;;6.45;1.77;;;5.70;90.90;;;;;;5074268;28;20414;-73
2023/02/25 10:38:11;;;;;;;21.50;3.72;;;5.60;90.00;;;;;;5073389;28;20040;-73
2023/02/25 10:40:38;;;;;;;8.57;1.13;;;5.70;88.70;;;;;;5056974;28;20117;-73
2023/02/25 10:43:20;;;;;;;7.93;1.30;;;5.50;86.80;;;;;;5072829;28;20044;-74
2023/02/25 10:45:50;;;;;;;7.03;1.50;;;5.60;87.00;;;;;;5081467;28;20100;-74
2023/02/25 10:48:23;;;;;;;5.45;1.15;;;5.60;86.50;;;;;;5112063;28;20039;-73
2023/02/25 10:51:05;;;;;;;4.95;1.70;;;5.60;87.80;;;;;;5094001;28;20122;-74
2023/02/25 10:53:32;;;;;;;6.30;1.10;;;5.70;88.40;;;;;;5093302;28;20123;-74
2023/02/25 10:55:58;;;;;;;8.98;1.75;;;5.60;88.70;;;;;;5093561;28;20040;-73
2023/02/25 10:58:43;;;;;;;5.43;1.58;;;5.70;88.50;;;;;;5111866;28;20631;-74
2023/02/25 11:01:18;;;;;;;8.45;1.55;;;5.60;88.10;;;;;;5093855;28;20414;-73
2023/02/25 11:04:04;;;;;;;8.55;1.55;;;5.60;88.10;;;;;;5093214;28;20123;-73
2023/02/25 11:06:35;;;;;;;8.23;3.72;;;5.60;87.70;;;;;;5094688;28;20052;-73
2023/02/25 11:09:25;;;;;;;7.82;1.50;;;5.60;89.60;;;;;;5080487;28;20035;-73
2023/02/25 11:12:08;;;;;;;8.13;1.20;;;5.70;90.30;;;;;;5070798;28;20035;-73
2023/02/25 11:14:36;;;;;;;14.93;1.60;;;5.80;90.30;;;;;;5056853;28;20037;-75
2023/02/25 11:17:19;;;;;;;6.25;1.33;;;5.90;90.90;;;;;;5075072;28;20041;-76
2023/02/25 11:20:01;;;;;;;4.60;1.80;;;5.80;90.50;;;;;;5057045;28;20040;-75
2023/02/25 11:22:36;;;;;;;5.35;1.60;;;5.80;90.70;;;;;;5056367;28;20036;-73
2023/02/25 11:25:06;;;;;;;4.32;0.90;;;5.80;89.70;;;;;;5039912;28;20463;-73
2023/02/25 11:27:41;;;;;;;8.68;1.75;;;5.80;85.40;;;;;;5055690;28;20086;-73
2023/02/25 11:30:13;;;;;;;12.07;1.77;;;5.70;85.90;;;;;;5056528;28;20098;-73
2023/02/25 11:32:44;;;;;;;4.85;1.95;;;5.70;87.50;;;;;;5073623;28;20047;-73
2023/02/25 11:35:34;;;;;;;4.80;1.23;;;5.80;86.90;;;;;;5067985;28;20056;-73
2023/02/25 11:38:27;;;;;;;5.03;1.70;;;5.70;87.20;;;;;;5076771;28;20032;-73
2023/02/25 11:40:53;;;;;;;7.00;1.20;;;5.70;85.10;;;;;;5060161;28;20439;-73
2023/02/25 11:43:21;;;;;;;4.30;0.80;;;5.70;84.30;;;;;;5094338;28;20043;-73
2023/02/25 11:46:00;;;;;;;3.80;1.25;;;5.70;84.40;;;;;;5094900;28;20044;-73
2023/02/25 11:48:39;;;;;;;6.28;1.10;;;5.70;81.70;;;;;;5076766;28;20483;-73
2023/02/25 11:51:27;;;;;;;5.78;1.30;;;5.70;81.30;;;;;;5076345;28;20043;-73
2023/02/25 11:53:59;;;;;;;4.75;1.90;;;5.80;80.70;;;;;;5075972;28;20107;-73
2023/02/25 11:56:30;;;;;;;5.35;1.23;;;5.80;79.80;;;;;;5076714;28;20130;-73
2023/02/25 11:59:13;;;;;;;3.03;1.27;;;5.80;81.10;;;;;;5076359;28;20495;-73
2023/02/25 12:02:02;;;;;;;5.22;1.15;;;5.60;80.10;;;;;;5076447;28;20506;-73
2023/02/25 12:04:55;;;;;;;9.25;1.35;;;5.60;82.10;;;;;;5094447;28;20039;-73
2023/02/25 12:07:23;;;;;;;2.92;1.35;;;5.70;80.30;;;;;;5094357;28;20076;-75
2023/02/25 12:10:10;;;;;;;10.07;1.80;;;5.80;80.60;;;;;;5094331;28;20091;-73
2023/02/25 12:12:52;;;;;;;5.50;1.02;;;5.70;81.20;;;;;;5076008;28;20044;-73
2023/02/25 12:15:36;;;;;;;7.55;1.60;;;5.80;83.60;;;;;;5094387;28;20396;-73
2023/02/25 12:18:21;;;;;;;3.20;0.93;;;5.90;82.10;;;;;;5075166;28;20048;-73
2023/02/25 12:21:30;;;;;;;3.80;1.25;;;5.80;76.90;;;;;;5094010;28;20044;-73
2023/02/25 12:24:25;;;;;;;5.82;1.55;;;5.80;78.00;;;;;;5075519;28;20399;-73
2023/02/25 12:27:24;;;;;;;3.60;1.20;;;5.70;81.80;;;;;;5004822;28;20144;-73
2023/02/25 12:30:05;;;;;;;3.00;1.70;;;5.70;80.60;;;;;;5075631;28;20067;-73
2023/02/25 12:33:08;;;;;;;6.15;0.90;;;5.70;80.40;;;;;;5075562;28;20032;-73
2023/02/25 12:36:02;;;;;;;10.57;2.03;;;5.70;80.00;;;;;;5093668;28;20040;-73
2023/02/25 12:38:52;;;;;;;5.72;1.92;;;5.70;81.70;;;;;;5075661;28;20046;-73
2023/02/25 12:41:38;;;;;;;5.05;1.70;;;5.70;80.20;;;;;;5075528;28;20051;-73
2023/02/25 12:44:24;;;;;;;7.43;1.52;;;5.60;82.50;;;;;;5075084;28;20105;-73
2023/02/25 12:47:01;;;;;;;3.45;1.35;;;5.60;83.10;;;;;;5093550;28;20079;-73
2023/02/25 12:49:38;;;;;;;10.38;1.73;;;5.60;81.80;;;;;;5093596;28;20050;-73
2023/02/25 12:52:35;;;;;;;3.45;1.10;;;5.60;81.70;;;;;;5075199;28;20410;-73
2023/02/25 12:55:16;;;;;;;7.95;2.30;;;5.60;82.80;;;;;;5093278;28;20412;-73
2023/02/25 12:58:05;;;;;;;3.15;0.95;;;5.60;83.00;;;;;;5075494;28;20039;-73
2023/02/25 13:01:05;;;;;;;6.82;1.33;;;5.70;83.90;;;;;;5060821;28;20143;-73
2023/02/25 13:03:44;;;;;;;5.32;1.48;;;5.80;84.30;;;;;;5075044;28;20388;-73
2023/02/25 13:06:37;;;;;;;9.43;2.10;;;6.00;85.10;;;;;;5093166;28;20040;-73
2023/02/25 13:09:27;;;;;;;9.77;2.47;;;5.90;85.80;;;;;;5074890;28;20040;-73
2023/02/25 13:12:15;;;;;;;4.43;1.52;;;5.80;84.80;;;;;;5075098;28;20109;-73
2023/02/25 13:15:01;;;;;;;5.53;1.50;;;5.70;84.40;;;;;;5092970;28;20051;-74
2023/02/25 13:17:49;;;;;;;9.10;1.60;;;5.80;85.10;;;;;;5074815;28;20380;-74
2023/02/25 13:20:43;;;;;;;10.32;1.63;;;5.90;85.50;;;;;;5074826;28;20032;-74